createdAt,value
2019-01-13T00:04:41.442Z,83.63
2019-01-13T00:07:09.649Z,83.34
2019-01-13T00:09:37.843Z,83.35
2019-01-13T00:12:06.096Z,83.31
2019-01-13T00:14:34.289Z,83.24
2019-01-13T00:17:42.604Z,83.35
2019-01-13T00:20:50.931Z,83.41
2019-01-13T00:23:19.125Z,83.23
2019-01-13T00:26:06.734Z,83.21
2019-01-13T00:28:34.958Z,83.14
2019-01-13T00:31:03.138Z,83.23
2019-01-13T00:33:31.363Z,83.36
2019-01-13T00:35:59.556Z,83.30
2019-01-13T00:38:27.751Z,83.20
2019-01-13T00:40:55.949Z,82.94
2019-01-13T00:43:24.135Z,82.93
2019-01-13T00:45:52.333Z,82.87
2019-01-13T00:48:20.521Z,82.96
2019-01-13T00:50:48.743Z,83.12
2019-01-13T00:53:16.932Z,83.31
2019-01-13T00:55:45.150Z,83.25
2019-01-13T00:58:13.334Z,83.01
2019-01-13T01:00:41.618Z,83.22
2019-01-13T01:03:09.798Z,83.40
2019-01-13T01:05:37.989Z,83.30
2019-01-13T01:08:06.174Z,83.44
2019-01-13T01:10:34.366Z,83.27
2019-01-13T01:13:02.576Z,83.14
2019-01-13T01:15:30.765Z,82.93
2019-01-13T01:17:58.949Z,82.74
2019-01-13T01:20:27.141Z,82.83
2019-01-13T01:22:55.327Z,82.84
2019-01-13T01:25:23.545Z,82.73
2019-01-13T01:27:51.727Z,82.43
2019-01-13T01:31:00.051Z,82.58
2019-01-13T01:33:28.241Z,82.29
2019-01-13T01:36:36.548Z,82.16
2019-01-13T01:39:44.844Z,82.27
2019-01-13T01:42:13.041Z,82.52
2019-01-13T01:44:41.227Z,82.37
2019-01-13T01:47:09.426Z,82.32
2019-01-13T01:49:37.614Z,82.22
2019-01-13T01:52:05.814Z,82.33
2019-01-13T01:57:21.241Z,82.05
2019-01-13T01:59:49.438Z,81.77
2019-01-13T02:02:37.063Z,81.95
2019-01-13T02:08:06.050Z,82.20
2019-01-13T02:10:34.253Z,82.29
2019-01-13T02:13:02.439Z,82.58
2019-01-13T02:15:30.627Z,82.71
2019-01-13T02:17:58.843Z,82.79
2019-01-13T02:20:27.026Z,82.92
2019-01-13T02:22:55.245Z,82.99
2019-01-13T02:28:24.823Z,83.06
2019-01-13T02:30:53.032Z,83.05
2019-01-13T02:34:01.335Z,82.94
2019-01-13T02:36:29.551Z,82.98
2019-01-13T02:38:57.795Z,82.76
2019-01-13T02:41:25.944Z,82.80
2019-01-13T02:44:13.580Z,82.81
2019-01-13T02:46:41.793Z,82.70
2019-01-13T02:49:10.001Z,82.58
2019-01-13T02:51:38.197Z,82.46
2019-01-13T02:54:06.379Z,82.38
2019-01-13T02:56:34.594Z,82.49
2019-01-13T02:59:02.779Z,82.36
2019-01-13T03:01:30.978Z,82.47
2019-01-13T03:03:59.185Z,82.85
2019-01-13T03:06:27.403Z,83.05
2019-01-13T03:08:55.606Z,83.28
2019-01-13T03:11:23.806Z,83.46
2019-01-13T03:13:51.988Z,83.58
2019-01-13T03:16:20.174Z,83.68
2019-01-13T03:18:48.366Z,83.73
2019-01-13T03:21:16.553Z,83.69
2019-01-13T03:23:44.757Z,83.71
2019-01-13T03:26:12.943Z,83.87
2019-01-13T03:28:41.155Z,83.96
2019-01-13T03:31:11.743Z,84.00
2019-01-13T03:33:39.277Z,84.05
2019-01-13T03:36:07.460Z,84.24
2019-01-13T03:38:35.660Z,84.22
2019-01-13T03:41:03.861Z,84.30
2019-01-13T03:43:32.044Z,84.29
2019-01-13T03:46:00.231Z,84.26
2019-01-13T03:48:28.452Z,84.13
2019-01-13T03:50:56.865Z,84.05
2019-01-13T03:53:26.542Z,84.01
2019-01-13T03:55:54.729Z,83.78
2019-01-13T03:58:22.946Z,83.66
2019-01-13T04:01:18.350Z,83.61
2019-01-13T04:03:40.529Z,83.62
2019-01-13T04:06:08.703Z,83.76
2019-01-13T04:08:36.928Z,83.80
2019-01-13T04:11:05.120Z,83.89
2019-01-13T04:13:33.427Z,84.02
2019-01-13T04:19:09.577Z,84.05
2019-01-13T04:21:37.787Z,84.16
2019-01-13T04:24:05.984Z,84.13
2019-01-13T04:26:34.163Z,84.15
2019-01-13T04:29:02.363Z,84.03
2019-01-13T04:31:30.552Z,84.11
2019-01-13T04:33:58.746Z,84.31
2019-01-13T04:36:26.926Z,84.45
2019-01-13T04:38:55.141Z,84.54
2019-01-13T04:41:23.315Z,84.44
2019-01-13T04:43:51.518Z,84.37
2019-01-13T04:46:19.705Z,84.19
2019-01-13T04:48:47.892Z,84.24
2019-01-13T04:51:16.079Z,84.11
2019-01-13T04:53:44.298Z,84.10
2019-01-13T04:56:12.493Z,84.13
2019-01-13T04:58:40.691Z,84.19
2019-01-13T05:01:08.914Z,84.38
2019-01-13T05:03:37.097Z,84.53
2019-01-13T05:06:05.294Z,84.52
2019-01-13T05:08:33.479Z,84.39
2019-01-13T05:11:21.102Z,84.54
2019-01-13T05:13:49.293Z,84.70
2019-01-13T05:16:17.496Z,84.91
2019-01-13T05:18:45.692Z,85.02
2019-01-13T05:21:13.887Z,85.16
2019-01-13T05:23:42.090Z,85.25
2019-01-13T05:26:10.287Z,85.13
2019-01-13T05:28:38.498Z,85.25
2019-01-13T05:31:06.685Z,85.28
2019-01-13T05:33:34.868Z,85.21
2019-01-13T05:36:03.067Z,85.35
2019-01-13T05:38:31.251Z,85.20
2019-01-13T05:40:59.450Z,85.24
2019-01-13T05:43:27.636Z,85.22
2019-01-13T05:45:55.827Z,85.22
2019-01-13T05:48:24.037Z,85.23
2019-01-13T05:50:52.244Z,85.14
2019-01-13T05:53:20.494Z,85.09
2019-01-13T05:55:48.689Z,84.97
2019-01-13T05:58:16.868Z,84.88
2019-01-13T06:00:45.057Z,84.83
2019-01-13T06:03:13.273Z,84.73
2019-01-13T06:05:41.455Z,84.81
2019-01-13T06:08:09.695Z,84.79
2019-01-13T06:10:37.836Z,84.66
2019-01-13T06:13:06.071Z,84.73
2019-01-13T06:15:34.233Z,84.58
2019-01-13T06:18:02.427Z,84.52
2019-01-13T06:20:30.617Z,84.40
2019-01-13T06:22:58.805Z,84.31
2019-01-13T06:25:27.023Z,84.33
2019-01-13T06:27:55.231Z,84.14
2019-01-13T06:30:23.419Z,84.09
2019-01-13T06:32:51.615Z,83.97
2019-01-13T06:35:19.794Z,84.03
2019-01-13T06:37:48.005Z,83.96
2019-01-13T06:43:30.151Z,84.22
2019-01-13T06:45:58.329Z,84.25
2019-01-13T06:48:26.547Z,84.37
2019-01-13T06:50:54.727Z,84.39
2019-01-13T06:53:22.923Z,84.25
2019-01-13T06:55:51.107Z,84.15
2019-01-13T06:58:19.318Z,84.17
2019-01-13T07:00:47.527Z,84.27
2019-01-13T07:03:15.734Z,84.26
2019-01-13T07:06:24.028Z,84.21
2019-01-13T07:08:52.217Z,84.33
2019-01-13T07:11:20.397Z,84.17
2019-01-13T07:13:48.588Z,84.10
2019-01-13T07:16:16.771Z,84.24
2019-01-13T07:18:44.960Z,84.24
2019-01-13T07:21:13.164Z,84.23
2019-01-13T07:23:41.359Z,84.10
2019-01-13T07:26:09.543Z,83.86
2019-01-13T07:28:37.732Z,83.96
2019-01-13T07:31:05.913Z,83.98
2019-01-13T07:33:34.117Z,84.01
2019-01-13T07:36:02.289Z,83.96
2019-01-13T07:38:30.503Z,83.99
2019-01-13T07:40:58.702Z,84.15
2019-01-13T07:43:26.880Z,84.19
2019-01-13T07:45:55.085Z,84.31
2019-01-13T07:48:23.271Z,84.47
2019-01-13T07:50:51.473Z,84.53
2019-01-13T07:53:19.670Z,84.73
2019-01-13T07:55:47.864Z,84.75
2019-01-13T07:58:16.112Z,84.64
2019-01-13T08:00:44.308Z,84.72
2019-01-13T08:03:12.487Z,84.81
2019-01-13T08:05:40.709Z,84.78
2019-01-13T08:08:08.883Z,84.81
2019-01-13T08:10:37.079Z,84.90
2019-01-13T08:13:05.257Z,85.03
2019-01-13T08:15:33.473Z,85.11
2019-01-13T08:18:01.654Z,85.10
2019-01-13T08:20:29.847Z,85.15
2019-01-13T08:22:58.021Z,85.23
2019-01-13T08:25:26.211Z,85.26
2019-01-13T08:27:54.391Z,85.23
2019-01-13T08:30:22.586Z,85.30
2019-01-13T08:32:50.785Z,85.43
2019-01-13T08:35:18.968Z,85.44
2019-01-13T08:38:27.272Z,85.53
2019-01-13T08:40:55.469Z,85.45
2019-01-13T08:43:23.648Z,85.51
2019-01-13T08:45:51.842Z,85.65
2019-01-13T08:48:20.042Z,85.82
2019-01-13T08:50:48.228Z,85.91
2019-01-13T08:53:16.413Z,85.93
2019-01-13T08:55:44.626Z,85.96
2019-01-13T08:58:12.801Z,85.95
2019-01-13T09:00:41.004Z,86.07
2019-01-13T09:03:09.195Z,86.17
2019-01-13T09:05:37.400Z,86.18
2019-01-13T09:08:05.585Z,86.25
2019-01-13T09:10:33.775Z,86.29
2019-01-13T09:13:01.966Z,86.25
2019-01-13T09:15:30.164Z,86.41
2019-01-13T09:17:58.362Z,86.37
2019-01-13T09:21:06.682Z,86.44
2019-01-13T09:23:34.885Z,86.40
2019-01-13T09:26:03.083Z,86.56
2019-01-13T09:28:31.260Z,86.73
2019-01-13T09:30:59.438Z,86.95
2019-01-13T09:33:27.651Z,87.14
2019-01-13T09:35:55.827Z,87.20
2019-01-13T09:38:24.032Z,87.23
2019-01-13T09:40:52.211Z,87.19
2019-01-13T09:43:20.409Z,87.22
2019-01-13T09:45:48.611Z,87.26
2019-01-13T09:48:16.826Z,87.33
2019-01-13T09:50:45.000Z,87.47
2019-01-13T09:53:13.199Z,87.54
2019-01-13T09:55:41.374Z,87.63
2019-01-13T09:58:49.703Z,87.72
2019-01-13T10:01:17.883Z,87.68
2019-01-13T10:03:46.093Z,87.52
2019-01-13T10:06:14.274Z,87.37
2019-01-13T10:08:42.468Z,87.28
2019-01-13T10:11:10.672Z,87.30
2019-01-13T10:13:38.861Z,87.32
2019-01-13T10:16:07.044Z,87.33
2019-01-13T10:18:35.238Z,87.34
2019-01-13T10:21:03.424Z,87.29
2019-01-13T10:23:31.632Z,87.20
2019-01-13T10:26:19.297Z,87.28
2019-01-13T10:28:47.489Z,87.32
2019-01-13T10:31:15.668Z,87.50
2019-01-13T10:33:43.899Z,87.66
2019-01-13T10:36:12.081Z,87.78
2019-01-13T10:38:40.278Z,87.88
2019-01-13T10:41:08.453Z,87.92
2019-01-13T10:43:36.664Z,87.95
2019-01-13T10:46:04.837Z,87.99
2019-01-13T10:48:33.028Z,88.04
2019-01-13T10:51:01.203Z,87.94
2019-01-13T10:53:29.395Z,87.92
2019-01-13T10:55:57.597Z,87.80
2019-01-13T10:58:25.800Z,87.65
2019-01-13T11:00:53.978Z,87.68
2019-01-13T11:03:22.165Z,87.61
2019-01-13T11:05:50.363Z,87.68
2019-01-13T11:08:18.570Z,87.49
2019-01-13T11:10:46.795Z,87.41
2019-01-13T11:13:14.967Z,87.11
2019-01-13T11:15:43.181Z,87.30
2019-01-13T11:18:11.392Z,87.38
2019-01-13T11:20:39.584Z,87.16
2019-01-13T11:23:07.763Z,87.00
2019-01-13T11:25:55.386Z,87.00
2019-01-13T11:28:23.597Z,86.87
2019-01-13T11:30:51.790Z,86.43
2019-01-13T11:33:19.982Z,86.51
2019-01-13T11:35:48.204Z,86.67
2019-01-13T11:38:35.506Z,86.88
2019-01-13T11:41:03.701Z,86.78
2019-01-13T11:43:31.907Z,86.81
2019-01-13T11:46:00.106Z,86.80
2019-01-13T11:48:28.289Z,86.79
2019-01-13T11:51:15.857Z,86.78
2019-01-13T11:53:44.038Z,86.82
2019-01-13T11:56:52.365Z,86.77
2019-01-13T11:59:27.414Z,86.63
2019-01-13T12:01:55.595Z,86.63
2019-01-13T12:04:23.781Z,86.72
2019-01-13T12:09:32.399Z,86.80
2019-01-13T12:12:00.634Z,86.90
2019-01-13T12:14:28.818Z,86.74
2019-01-13T12:16:57.014Z,86.52
2019-01-13T12:19:25.221Z,86.66
2019-01-13T12:21:53.420Z,86.62
2019-01-13T12:24:21.618Z,86.60
2019-01-13T12:26:49.834Z,86.42
2019-01-13T12:32:05.288Z,86.08
2019-01-13T12:34:33.465Z,86.14
2019-01-13T12:37:01.687Z,86.22
2019-01-13T12:39:49.007Z,86.29
2019-01-13T12:42:17.475Z,86.04
2019-01-13T12:44:45.653Z,86.01
2019-01-13T12:47:33.213Z,85.95
2019-01-13T12:50:01.404Z,85.96
2019-01-13T12:53:09.741Z,85.95
2019-01-13T12:55:37.966Z,85.94
2019-01-13T12:58:06.174Z,86.01
2019-01-13T13:00:34.394Z,86.05
2019-01-13T13:03:02.603Z,86.19
2019-01-13T13:05:30.814Z,86.31
2019-01-13T13:07:59.007Z,86.32
2019-01-13T13:11:07.317Z,86.40
2019-01-13T13:13:35.494Z,86.59
2019-01-13T13:16:03.756Z,86.24
2019-01-13T13:18:32.029Z,86.42
2019-01-13T13:21:00.341Z,86.70
2019-01-13T13:23:28.562Z,86.60
2019-01-13T13:25:56.862Z,86.11
2019-01-13T13:28:25.081Z,86.06
2019-01-13T13:30:53.290Z,85.86
2019-01-13T13:33:21.490Z,85.84
2019-01-13T13:35:49.731Z,85.51
2019-01-13T13:38:17.930Z,85.08
2019-01-13T13:40:46.110Z,85.12
2019-01-13T13:43:14.327Z,87.80
2019-01-13T13:45:42.519Z,88.99
2019-01-13T13:48:10.744Z,87.06
2019-01-13T13:50:39.437Z,85.21
2019-01-13T13:53:08.015Z,81.24
2019-01-13T13:58:23.420Z,80.81
2019-01-13T14:01:11.034Z,80.76
2019-01-13T14:03:58.665Z,81.20
2019-01-13T14:06:26.862Z,81.33
2019-01-13T14:08:55.079Z,81.57
2019-01-13T14:11:23.281Z,81.86
2019-01-13T14:13:51.478Z,82.08
2019-01-13T14:16:19.667Z,82.23
2019-01-13T14:19:28.033Z,82.40
2019-01-13T14:21:56.223Z,82.45
2019-01-13T14:24:24.445Z,82.78
2019-01-13T14:26:52.653Z,83.21
2019-01-13T14:29:20.858Z,83.09
2019-01-13T14:31:49.093Z,83.37
2019-01-13T14:34:17.311Z,83.14
2019-01-13T14:36:45.497Z,83.01
2019-01-13T14:39:13.720Z,82.93
2019-01-13T14:41:41.925Z,83.02
2019-01-13T14:44:29.552Z,83.33
2019-01-13T14:46:57.684Z,83.46
2019-01-13T14:49:25.929Z,83.51
2019-01-13T14:52:13.245Z,83.79
2019-01-13T14:54:41.480Z,84.19
2019-01-13T14:57:09.616Z,84.19
2019-01-13T14:59:37.836Z,84.53
2019-01-13T15:02:06.045Z,84.88
2019-01-13T15:04:34.230Z,85.01
2019-01-13T15:07:02.426Z,84.58
2019-01-13T15:09:30.640Z,84.06
2019-01-13T15:11:58.821Z,83.66
2019-01-13T15:14:27.020Z,83.35
2019-01-13T15:16:55.232Z,83.29
2019-01-13T15:19:23.424Z,82.95
2019-01-13T15:21:51.614Z,82.88
2019-01-13T15:24:19.815Z,82.81
2019-01-13T15:26:48.010Z,82.64
2019-01-13T15:29:16.191Z,82.53
2019-01-13T15:32:03.518Z,82.18
2019-01-13T15:34:31.703Z,82.57
2019-01-13T15:36:59.907Z,82.86
2019-01-13T15:39:28.093Z,82.73
2019-01-13T15:41:56.285Z,82.84
2019-01-13T15:44:24.467Z,82.48
2019-01-13T15:46:52.706Z,82.44
2019-01-13T15:49:20.877Z,82.23
2019-01-13T15:51:49.070Z,80.74
2019-01-13T15:54:17.248Z,80.27
2019-01-13T15:56:45.445Z,79.35
2019-01-13T15:59:13.645Z,79.17
2019-01-13T16:01:41.888Z,78.23
2019-01-13T16:04:29.433Z,78.50
2019-01-13T16:06:57.690Z,77.81
2019-01-13T16:09:25.869Z,78.09
2019-01-13T16:11:54.073Z,77.99
2019-01-13T16:14:22.268Z,77.97
2019-01-13T16:16:50.450Z,78.16
2019-01-13T16:19:18.661Z,78.06
2019-01-13T16:21:46.846Z,78.10
2019-01-13T16:24:15.060Z,77.85
2019-01-13T16:26:43.253Z,77.70
2019-01-13T16:29:11.465Z,77.68
2019-01-13T16:31:39.674Z,77.35
2019-01-13T16:34:07.890Z,77.28
2019-01-13T16:36:55.441Z,77.56
2019-01-13T16:39:23.635Z,77.75
2019-01-13T16:41:51.817Z,78.05
2019-01-13T16:46:54.053Z,78.22
2019-01-13T16:49:22.241Z,78.16
2019-01-13T16:51:50.424Z,78.59
2019-01-13T16:54:37.985Z,78.60
2019-01-13T16:57:06.191Z,78.92
2019-01-13T16:59:53.774Z,78.45
2019-01-13T17:02:21.952Z,78.05
2019-01-13T17:07:24.434Z,77.51
2019-01-13T17:09:52.624Z,77.48
2019-01-13T17:12:20.806Z,77.15
2019-01-13T17:14:49.019Z,76.96
2019-01-13T17:17:17.200Z,77.03
2019-01-13T17:19:45.391Z,76.64
2019-01-13T17:22:13.580Z,75.89
2019-01-13T17:24:41.778Z,75.86
2019-01-13T17:27:09.975Z,76.10
2019-01-13T17:29:38.169Z,76.20
2019-01-13T17:32:06.352Z,76.09
2019-01-13T17:34:36.098Z,75.72
2019-01-13T17:37:04.454Z,75.98
2019-01-13T17:39:32.667Z,76.18
2019-01-13T17:42:00.855Z,76.13
2019-01-13T17:44:29.035Z,76.09
2019-01-13T17:46:57.228Z,76.27
2019-01-13T17:49:25.427Z,75.80
2019-01-13T17:51:53.643Z,75.86
2019-01-13T17:54:21.831Z,76.08
2019-01-13T17:56:50.023Z,75.99
2019-01-13T17:59:18.206Z,76.10
2019-01-13T18:02:26.659Z,76.03
2019-01-13T18:04:55.091Z,75.63
2019-01-13T18:08:03.666Z,75.84
2019-01-13T18:10:31.977Z,75.47
2019-01-13T18:13:00.354Z,75.23
2019-01-13T18:15:28.631Z,74.97
2019-01-13T18:17:56.872Z,74.74
2019-01-13T18:20:25.116Z,74.83
2019-01-13T18:22:53.614Z,74.97
2019-01-13T18:25:22.003Z,74.98
2019-01-13T18:27:50.825Z,74.83
2019-01-13T18:33:34.044Z,74.89
2019-01-13T18:36:03.937Z,75.46
2019-01-13T18:38:32.225Z,75.50
2019-01-13T18:41:00.923Z,75.57
2019-01-13T18:43:29.716Z,75.55
2019-01-13T18:45:58.068Z,75.50
2019-01-13T18:48:26.768Z,74.73
2019-01-13T18:53:42.458Z,74.54
2019-01-13T18:56:30.061Z,74.33
2019-01-13T18:58:58.298Z,73.99
2019-01-13T19:01:26.541Z,74.16
2019-01-13T19:03:54.843Z,74.30
2019-01-13T19:06:23.239Z,74.16
2019-01-13T19:08:51.801Z,74.42
2019-01-13T19:11:20.097Z,74.10
2019-01-13T19:14:28.461Z,74.21
2019-01-13T19:19:57.453Z,74.31
2019-01-13T19:22:25.723Z,74.57
2019-01-13T19:28:07.670Z,74.81
2019-01-13T19:30:35.860Z,75.49
2019-01-13T19:33:44.171Z,75.92
2019-01-13T19:36:12.355Z,76.35
2019-01-13T19:38:59.935Z,76.29
2019-01-13T19:41:28.132Z,76.33
2019-01-13T19:43:56.330Z,76.08
2019-01-13T19:46:43.648Z,75.84
2019-01-13T19:51:45.226Z,75.72
2019-01-13T19:54:13.451Z,75.57
2019-01-13T19:56:41.658Z,75.52
2019-01-13T19:59:09.861Z,75.27
2019-01-13T20:01:57.174Z,75.13
2019-01-13T20:09:39.298Z,75.13
2019-01-13T20:12:07.477Z,75.25
2019-01-13T20:14:35.680Z,76.14
2019-01-13T20:17:03.870Z,76.08
2019-01-13T20:19:32.066Z,74.75
2019-01-13T20:22:19.613Z,75.23
2019-01-13T20:24:47.805Z,74.41
2019-01-13T20:27:15.979Z,74.54
2019-01-13T20:29:44.201Z,74.95
2019-01-13T20:32:12.387Z,75.45
2019-01-13T20:37:33.632Z,75.53
2019-01-13T20:40:01.899Z,74.90
2019-01-13T20:42:30.083Z,74.72
2019-01-13T20:44:58.281Z,74.46
2019-01-13T20:47:26.462Z,73.93
2019-01-13T20:50:15.078Z,73.98
2019-01-13T20:55:43.762Z,73.95
2019-01-13T20:58:11.942Z,73.26
2019-01-13T21:00:40.137Z,73.29
2019-01-13T21:03:48.451Z,72.61
2019-01-13T21:06:16.659Z,71.68
2019-01-13T21:08:44.868Z,71.62
2019-01-13T21:11:53.263Z,71.58
2019-01-13T21:14:21.440Z,70.90
2019-01-13T21:17:08.996Z,70.22
2019-01-13T21:19:37.198Z,69.51
2019-01-13T21:22:05.424Z,68.67
2019-01-13T21:24:52.719Z,67.40
2019-01-13T21:30:01.664Z,67.67
2019-01-13T21:32:30.569Z,67.40
2019-01-13T21:34:58.754Z,68.01
2019-01-13T21:37:26.948Z,68.04
2019-01-13T21:39:55.130Z,67.11
2019-01-13T21:42:23.342Z,67.48
2019-01-13T21:44:51.527Z,67.50
2019-01-13T21:47:39.090Z,67.36
2019-01-13T21:53:21.276Z,66.69
2019-01-13T21:55:49.451Z,66.51
2019-01-13T21:58:17.650Z,66.19
2019-01-13T22:00:45.844Z,65.87
2019-01-13T22:03:14.039Z,66.10
2019-01-13T22:05:42.217Z,66.00
2019-01-13T22:08:10.413Z,65.07
2019-01-13T22:10:38.596Z,65.49
2019-01-13T22:13:06.795Z,64.15
2019-01-13T22:15:34.981Z,64.59
2019-01-13T22:18:03.181Z,63.88
2019-01-13T22:20:31.366Z,63.83
2019-01-13T22:22:59.589Z,64.08
2019-01-13T22:25:27.799Z,63.66
2019-01-13T22:27:55.985Z,63.92
2019-01-13T22:30:24.166Z,63.89
2019-01-13T22:32:52.363Z,63.93
2019-01-13T22:35:20.542Z,63.23
2019-01-13T22:37:55.303Z,62.60
2019-01-13T22:43:33.109Z,62.26
2019-01-13T22:46:01.329Z,62.15
2019-01-13T22:48:29.520Z,62.75
2019-01-13T22:50:57.706Z,62.25
2019-01-13T22:53:25.910Z,62.15
2019-01-13T22:55:54.087Z,61.76
2019-01-13T22:58:22.266Z,61.72
2019-01-13T23:01:30.598Z,61.82
2019-01-13T23:03:58.793Z,61.51
2019-01-13T23:06:26.993Z,61.55
2019-01-13T23:08:55.174Z,61.81
2019-01-13T23:11:23.377Z,62.36
2019-01-13T23:16:38.810Z,62.59
2019-01-13T23:19:07.021Z,60.74
2019-01-13T23:21:35.203Z,60.72
2019-01-13T23:26:50.628Z,60.52
2019-01-13T23:29:18.816Z,60.34
2019-01-13T23:31:47.017Z,60.79
2019-01-13T23:34:15.202Z,61.09
2019-01-13T23:36:43.406Z,60.75
2019-01-13T23:39:11.585Z,61.09
2019-01-13T23:41:39.783Z,61.02
2019-01-13T23:47:00.701Z,61.46
2019-01-13T23:49:28.928Z,61.29
2019-01-13T23:51:57.131Z,61.47
2019-01-13T23:54:25.321Z,61.33
2019-01-13T23:59:27.783Z,61.92
